Date,TemperatureHighF,TemperatureAvgF,TemperatureLowF,DewpointHighF,DewpointAvgF,DewpointLowF,HumidityHigh,HumidityAvg,HumidityLow,PressureMaxIn,PressureMinIn,WindSpeedMaxMPH,WindSpeedAvgMPH,GustSpeedMaxMPH,PrecipitationSumIn
2013-1-10,48.4,39.6,29.5,28.9,24.8,21.7,82,57,37,30.54,30.04,15,2,15,0.00
2013-1-11,38.5,31.6,23.9,35.5,27.6,21.7,99,86,65,30.53,30.22,4,0,4,0.12
2013-1-12,41.0,37.6,34.9,40.7,37.4,34.6,99,99,99,30.23,30.12,2,0,2,0.02
2013-1-13,50.9,45.0,37.8,50.6,44.6,37.5,99,99,96,30.15,29.98,5,0,5,0.01
2013-1-14,61.9,50.4,40.6,53.4,43.8,28.6,99,80,36,30.25,29.83,11,1,11,0.00
2013-1-15,40.8,36.0,30.2,30.8,26.3,24.2,83,68,52,30.32,30.21,4,0,4,0.00
2013-1-16,32.5,31.5,29.1,32.3,30.5,25.9,99,96,80,30.24,29.82,0,0,0,0.05
2013-1-17,41.5,33.0,27.0,37.2,27.9,14.2,99,83,53,30.08,29.82,11,1,11,0.22
2013-1-18,28.6,20.9,15.6,16.0,2.2,-6.9,60,45,22,30.44,30.05,11,1,14,0.00
2013-1-19,49.3,34.9,19.9,32.3,20.8,6.7,77,57,36,30.37,29.88,15,2,15,0.14
2013-1-20,52.3,40.8,27.5,32.7,26.2,9.0,78,57,33,29.91,29.53,17,4,17,0.00
2013-1-21,27.9,23.8,18.9,19.5,10.8,4.4,92,59,37,30.09,29.78,11,1,14,0.00
2013-1-22,25.9,18.4,10.2,19.8,7.9,-3.0,96,66,32,30.06,29.74,12,2,13,0.00
2013-1-23,18.0,9.7,4.5,-0.3,-8.0,-12.4,66,45,26,30.13,30.05,12,3,14,0.00
2013-1-24,21.6,9.7,-0.2,-6.1,-9.5,-12.8,61,42,21,30.22,30.05,14,3,20,0.00
2013-1-25,24.4,14.7,6.3,11.1,-6.6,-12.5,80,39,19,30.30,30.05,9,2,10,0.00
2013-1-26,27.3,15.9,8.6,11.8,2.3,-8.8,90,58,25,30.23,29.99,12,2,13,0.00
2013-1-27,32.9,19.1,9.1,4.3,-0.0,-6.1,70,46,22,30.46,30.22,11,3,15,0.00
2013-1-28,30.0,22.5,14.9,25.8,14.0,2.9,98,72,36,30.45,30.01,4,0,4,0.00
2013-1-29,32.9,29.0,23.9,32.1,28.3,23.7,99,97,92,30.19,30.01,2,0,3,0.00
2013-1-30,60.3,47.5,32.0,58.6,46.6,31.8,99,97,91,30.14,29.43,14,3,17,0.31
2013-1-31,61.0,47.0,29.5,60.2,37.3,13.9,99,71,39,29.58,28.95,22,7,22,0.33
2013-2-1,34.2,27.7,20.8,16.6,7.8,2.6,58,43,27,30.07,29.58,12,4,19,0.01
2013-2-2,31.1,23.3,14.9,11.3,6.3,1.6,62,48,34,30.24,30.03,8,2,11,0.00
2013-2-3,26.4,23.4,18.5,22.4,19.6,11.5,96,85,56,30.04,29.71,5,0,7,0.00
2013-2-4,29.8,22.3,15.4,21.5,11.6,5.0,97,66,39,29.93,29.70,13,3,15,0.00
2013-2-5,28.4,23.5,18.5,22.0,13.4,8.1,91,65,50,30.01,29.92,4,0,7,0.00
2013-2-6,38.3,28.8,22.5,27.1,18.8,4.2,97,69,39,30.29,29.91,13,2,13,0.04
2013-2-7,33.1,23.3,13.6,8.7,3.2,-2.2,71,43,22,30.52,30.28,8,1,10,0.01
2013-2-8,31.8,24.9,16.5,31.1,21.2,7.1,99,87,48,30.48,29.60,12,2,15,0.00
2013-2-9,21.7,17.6,13.1,18.8,13.5,2.6,99,85,60,30.19,29.57,18,6,18,0.00
2013-2-10,45.7,20.1,0.3,14.4,4.6,-8.1,83,57,10,30.38,30.19,8,1,11,0.00
2013-2-11,37.0,27.3,12.9,36.8,25.4,8.7,99,92,81,30.34,29.59,4,0,5,0.00
2013-2-12,45.9,37.5,29.3,35.2,29.2,25.4,99,73,51,29.87,29.59,16,3,19,0.33
2013-2-13,46.8,33.0,23.4,28.0,24.8,20.9,93,74,41,29.86,29.67,7,1,8,0.32
2013-2-14,48.4,34.7,25.5,27.5,23.6,18.4,87,67,30,29.98,29.70,8,1,8,0.15
2013-2-15,54.0,37.7,28.0,34.3,30.2,22.8,99,77,44,29.99,29.88,9,2,11,0.18
2013-2-16,38.1,33.4,28.8,33.7,28.1,18.4,99,82,57,29.94,29.71,9,1,9,0.04
2013-2-17,28.6,20.7,15.8,20.4,11.0,-0.5,96,68,42,29.70,29.38,24,7,24,0.00
2013-2-18,34.5,22.0,12.7,3.2,-0.5,-8.9,55,39,15,30.15,29.67,20,6,20,0.02
2013-2-19,47.3,34.3,19.9,40.7,23.0,2.3,99,65,44,30.16,29.57,8,1,9,0.15
2013-2-20,39.4,31.5,25.0,39.1,20.4,10.1,99,65,40,29.77,29.52,14,5,15,0.14
2013-2-21,36.1,27.1,22.8,16.0,13.4,9.9,73,57,37,30.19,29.76,16,5,16,0.00
2013-2-22,42.3,30.5,19.0,26.4,20.5,15.6,88,68,40,30.38,30.19,8,1,10,0.00
2013-2-23,37.9,32.8,27.0,32.1,28.7,23.8,99,85,70,30.33,29.91,7,1,8,0.00
2013-2-24,34.2,32.5,30.2,33.9,32.3,30.0,99,99,99,29.91,29.68,7,0,10,0.39
2013-2-25,39.7,33.1,28.4,36.6,31.7,28.2,99,95,73,30.24,29.88,3,0,4,0.44
2013-2-26,44.1,34.3,25.7,39.5,29.7,25.5,99,85,57,30.33,30.15,8,1,11,0.12
2013-2-27,41.0,37.6,34.7,40.7,37.0,31.5,99,98,85,30.15,29.56,17,3,17,0.70
2013-2-28,47.7,36.8,32.4,39.8,34.9,32.1,99,93,73,29.63,29.52,4,0,7,0.40
2013-3-1,41.4,35.9,29.5,36.5,30.6,28.4,99,82,64,29.67,29.52,9,2,11,0.14
2013-3-2,42.6,36.4,30.2,30.1,27.8,25.4,86,71,57,29.67,29.61,9,2,12,0.01
2013-3-3,41.9,34.6,31.5,32.8,29.2,25.8,99,81,66,29.64,29.55,8,2,8,0.00
2013-3-4,39.9,33.8,28.6,27.9,24.5,21.1,82,69,51,29.74,29.57,12,4,14,0.00
2013-3-5,45.9,35.5,30.2,31.5,27.1,23.2,94,72,51,30.06,29.74,11,2,11,0.01
2013-3-6,39.7,35.3,31.8,36.4,33.2,30.3,99,92,71,30.10,30.03,14,3,14,0.11
2013-3-7,34.5,31.7,29.7,32.4,30.5,29.0,99,95,81,30.06,29.98,11,2,22,0.12
2013-3-8,33.6,30.3,27.3,33.4,30.1,27.1,99,99,99,30.14,29.93,8,0,10,0.00
2013-3-9,53.4,33.7,23.4,31.9,26.5,21.6,99,79,30,30.35,30.14,10,1,10,0.90
2013-3-10,47.7,33.1,20.7,34.4,28.4,20.5,99,85,54,30.41,30.30,5,1,8,0.11
2013-3-11,56.8,42.1,32.7,41.1,35.8,30.9,99,81,44,30.32,30.14,7,2,8,0.00
2013-3-12,55.9,48.1,39.4,53.3,47.3,39.1,99,97,83,30.15,29.71,8,2,11,0.31
2013-3-13,53.6,42.5,29.5,50.5,31.3,18.6,99,69,29,29.78,29.70,14,2,14,0.20
2013-3-14,35.1,29.7,21.7,25.0,15.6,6.2,83,57,38,29.83,29.70,21,4,21,0.00
2013-3-15,42.6,29.9,18.3,27.6,12.7,0.5,78,51,18,29.86,29.62,14,4,15,0.00
2013-3-16,41.5,33.0,26.2,26.9,15.3,5.5,81,50,24,29.87,29.65,10,2,11,0.00
2013-3-17,40.3,29.7,19.9,18.1,10.6,-2.7,81,48,16,30.31,29.86,14,3,17,0.00
2013-3-18,39.9,27.5,15.1,24.9,7.2,-2.9,82,45,17,30.45,30.24,7,2,7,0.00
2013-3-19,34.7,31.6,27.5,34.4,31.2,26.5,99,99,94,30.23,29.60,8,1,8,0.18
2013-3-20,42.4,30.1,22.5,27.1,22.6,18.0,99,77,39,29.80,29.69,12,2,12,0.40
2013-3-21,40.1,28.5,19.2,29.0,23.3,16.2,97,83,38,29.81,29.59,5,0,5,0.18
2013-3-22,42.4,32.9,25.9,26.8,19.9,14.7,99,61,34,29.74,29.59,10,3,12,0.21
2013-3-23,44.6,34.5,25.0,23.8,19.8,15.8,81,57,33,29.78,29.62,18,4,18,0.13
2013-3-24,50.7,37.5,28.8,28.7,23.1,19.9,85,58,32,29.81,29.71,12,2,12,0.00
2013-3-25,44.1,35.3,28.2,33.8,30.2,25.9,93,82,66,29.76,29.51,8,1,11,0.00
2013-3-26,52.7,38.7,32.2,31.1,26.2,17.7,87,64,26,29.77,29.53,9,2,9,0.00
2013-3-27,55.4,42.0,25.2,31.5,24.8,19.6,85,54,28,29.86,29.73,14,3,14,0.00
2013-3-28,48.4,41.0,34.5,36.8,33.6,28.9,98,77,48,30.01,29.86,8,1,10,0.01
2013-3-29,56.7,42.9,28.9,38.2,31.5,26.6,99,68,34,30.04,29.96,9,1,14,0.00
2013-3-30,60.6,45.2,31.5,33.5,21.4,2.0,91,48,10,30.10,30.00,12,2,18,0.00
2013-3-31,61.9,44.2,25.5,40.6,25.2,13.8,90,55,15,30.12,29.74,11,2,14,0.02
2013-4-1,64.2,46.9,33.8,45.2,37.4,10.5,99,73,35,29.79,29.50,17,4,21,0.14
2013-4-2,43.3,34.1,27.9,17.2,12.8,7.1,57,42,25,29.94,29.79,16,5,21,0.00
2013-4-3,49.3,36.8,28.8,19.0,11.0,-0.3,62,37,13,30.16,29.92,19,6,19,0.00
2013-4-4,59.2,42.0,26.8,26.2,13.0,-1.9,67,37,10,30.30,30.05,10,3,13,0.00
2013-4-5,63.5,46.2,35.4,30.8,24.8,5.7,75,49,10,30.06,29.62,11,3,15,0.00
2013-4-6,49.5,37.5,27.7,26.4,6.8,-8.6,65,33,10,30.34,29.88,14,4,17,0.00
2013-4-7,57.7,41.1,23.9,40.5,25.4,11.3,83,57,20,30.34,30.00,23,3,23,0.00
2013-4-8,69.3,52.7,40.5,45.2,39.1,30.9,99,66,25,30.09,29.95,9,2,10,0.00
2013-4-9,74.1,55.4,44.8,54.6,44.4,39.6,99,70,32,30.09,29.86,14,2,17,0.07
2013-4-10,64.9,51.6,45.1,49.7,46.7,42.6,99,85,55,30.02,29.86,7,1,10,0.28
2013-4-11,53.8,46.9,41.5,49.4,41.2,27.7,99,83,48,30.14,29.82,10,1,11,0.09
2013-4-12,41.4,37.7,36.0,38.0,36.3,32.7,99,95,71,30.17,29.79,11,2,13,0.81
2013-4-13,54.5,43.2,34.7,41.6,37.7,34.5,99,83,52,29.94,29.76,7,2,11,0.07
2013-4-14,54.5,44.2,33.8,41.6,32.9,25.4,99,68,35,30.22,29.91,11,2,18,0.00
2013-4-15,59.5,44.1,28.2,39.0,32.6,26.9,97,68,31,30.40,30.22,8,2,11,0.00
2013-4-16,67.1,51.9,35.6,51.7,42.5,35.0,99,73,44,30.41,30.06,13,4,14,0.00
2013-4-17,71.2,58.2,45.1,53.9,35.7,19.8,90,49,15,30.35,30.06,13,3,13,0.00
2013-4-18,66.4,50.5,34.5,45.5,33.2,25.4,88,56,26,30.43,30.15,12,3,14,0.00
2013-4-19,77.0,63.3,51.8,64.2,58.2,45.5,99,85,55,30.15,29.64,23,4,23,0.00
2013-4-20,67.1,53.8,43.2,64.2,41.6,21.6,99,68,33,30.22,29.59,17,4,17,0.79
2013-4-21,55.6,42.7,31.8,29.0,21.3,12.6,79,46,19,30.69,30.22,11,2,17,0.02
2013-4-22,54.5,41.3,28.9,35.3,29.4,18.2,97,67,27,30.77,30.60,17,3,17,0.00
2013-4-23,41.7,39.9,36.0,41.5,38.1,30.6,99,93,77,30.60,30.14,10,2,10,0.02
2013-4-24,77.2,56.5,40.6,52.6,44.1,32.2,99,70,20,30.13,29.78,10,3,13,0.01
2013-4-25,67.5,55.3,40.6,53.2,34.7,14.5,98,53,14,30.27,29.83,13,3,15,0.05
2013-4-26,63.3,48.0,33.8,39.8,33.8,29.1,91,62,31,30.44,30.28,10,2,11,0.00
2013-4-27,66.9,51.0,33.6,45.7,35.5,31.7,99,62,27,30.43,30.29,9,2,9,0.00
2013-4-28,73.2,55.0,36.1,43.5,33.9,26.7,97,52,19,30.35,30.21,10,2,10,0.00
2013-4-29,72.9,57.3,44.1,48.1,35.7,24.1,92,50,19,30.28,30.19,8,2,9,0.00
2013-4-30,73.9,56.2,41.9,38.5,25.6,7.5,78,39,10,30.37,30.25,7,1,11,0.00
2013-5-1,72.5,53.9,34.9,42.5,31.6,23.2,95,51,17,30.47,30.37,8,1,8,0.00
2013-5-2,81.7,55.4,38.8,47.1,38.4,29.7,98,60,16,30.50,30.35,11,1,11,0.00
2013-5-3,64.6,49.6,38.1,45.2,40.6,37.0,99,74,46,30.53,30.38,11,2,11,0.00
2013-5-4,63.1,48.3,35.4,46.5,38.9,34.6,99,74,41,30.38,30.30,13,2,13,0.00
2013-5-5,63.3,46.8,32.7,43.4,37.8,32.5,99,75,41,30.34,30.24,8,1,8,0.00
2013-5-6,75.2,51.3,33.6,50.4,43.0,33.4,99,78,28,30.29,30.14,8,1,11,0.00
2013-5-7,80.6,61.4,42.4,59.0,51.6,42.2,99,74,40,30.18,30.08,6,1,8,0.00
2013-5-8,75.0,62.4,50.9,64.3,58.8,50.6,99,89,63,30.19,30.04,9,1,12,0.12
2013-5-9,68.9,59.9,56.3,64.9,59.1,56.0,99,97,77,30.04,29.88,4,0,4,0.33
2013-5-10,82.0,65.3,53.2,64.0,57.6,52.2,99,80,38,29.95,29.88,6,1,6,0.08
2013-5-11,70.5,63.5,58.3,63.9,60.3,55.6,99,90,75,29.91,29.68,13,1,13,0.02
2013-5-12,72.3,61.0,48.7,62.0,52.3,29.9,99,76,40,29.81,29.55,12,1,13,0.01
2013-5-13,61.9,48.9,39.0,35.4,30.9,24.4,83,53,24,30.03,29.80,13,2,14,0.00
2013-5-14,62.6,47.9,34.0,38.0,31.6,25.1,95,58,26,30.05,29.96,11,2,11,0.00
2013-5-15,68.9,49.7,33.6,52.8,40.2,29.6,99,75,27,30.05,29.66,10,1,13,0.02
2013-5-16,84.6,65.7,47.1,55.3,39.7,24.6,99,52,12,29.80,29.62,13,2,14,0.00
2013-5-17,70.9,58.9,48.4,45.0,41.6,34.9,86,55,29,30.21,29.80,11,2,16,0.00
2013-5-18,76.1,58.1,41.4,50.3,43.7,33.4,99,65,21,30.31,30.21,5,1,9,0.00
2013-5-19,74.1,56.6,45.9,56.0,51.0,45.3,99,84,42,30.35,30.22,8,1,8,0.09
2013-5-20,84.0,67.6,55.2,68.7,61.7,55.0,99,84,50,30.22,29.90,7,1,7,0.04
2013-5-21,86.9,62.8,51.1,70.6,59.0,50.8,99,89,56,30.01,29.85,5,1,10,0.00
2013-5-22,70.3,56.6,50.0,65.3,55.1,49.7,99,95,78,30.06,29.88,8,1,8,0.18
2013-5-23,77.4,64.2,53.8,73.2,62.3,53.5,99,94,80,29.93,29.80,8,1,9,0.01
2013-5-24,72.1,62.6,48.4,69.7,62.0,48.1,99,98,84,29.82,29.65,10,1,11,0.01
2013-5-25,50.9,46.7,40.6,50.6,46.4,40.4,99,99,99,29.81,29.70,11,3,16,0.00
2013-5-26,59.2,47.8,39.0,46.0,40.9,38.6,99,79,49,30.10,29.71,13,3,17,0.05
2013-5-27,75.4,56.3,38.3,47.9,39.4,27.7,99,62,18,30.17,30.06,8,2,13,0.00
2013-5-28,77.9,58.3,40.1,53.9,46.5,38.3,99,71,25,30.24,30.14,4,0,6,0.00
2013-5-29,70.0,62.2,56.7,67.6,61.2,53.8,99,96,87,30.18,29.98,4,0,5,1.12
2013-5-30,90.0,73.6,60.6,73.7,66.9,60.4,99,83,49,30.08,29.99,6,1,7,0.00
2013-5-31,97.0,78.8,62.6,75.3,66.5,60.9,99,71,31,30.09,29.91,6,1,8,0.00
2013-6-1,95.0,79.1,64.6,70.7,67.0,63.3,98,70,38,29.96,29.83,8,1,9,0.00
2013-6-2,92.3,77.9,68.2,71.1,67.3,62.0,96,73,37,29.86,29.69,11,2,16,0.00
2013-6-3,79.5,69.0,59.9,71.0,64.5,46.0,99,86,59,29.83,29.73,5,1,5,0.48
2013-6-4,73.8,60.6,48.2,52.2,45.9,41.5,87,61,36,30.09,29.80,9,2,13,0.00
2013-6-5,78.4,61.6,46.6,56.0,49.2,43.0,99,68,31,30.19,30.08,7,1,7,0.00
2013-6-6,76.1,63.1,51.4,56.0,51.6,47.3,95,68,42,30.19,30.09,6,1,8,0.01
2013-6-7,57.9,55.6,53.2,57.7,55.3,53.0,99,99,91,30.11,29.81,7,1,7,3.05
2013-6-8,79.5,63.1,52.7,67.3,58.9,52.4,99,88,60,30.00,29.61,11,2,11,1.43
2013-6-9,82.4,66.8,54.3,61.7,57.2,53.2,99,75,38,30.16,29.99,8,1,11,0.00
2013-6-10,69.4,61.3,53.4,63.9,58.4,53.2,99,91,69,30.20,30.01,4,1,7,0.90
2013-6-11,62.6,58.2,55.8,61.2,57.6,55.5,99,98,89,30.01,29.56,5,1,7,1.30
2013-6-12,72.9,62.3,55.9,60.4,56.3,53.6,99,82,56,29.81,29.55,14,3,14,0.05
2013-6-13,65.3,55.9,49.6,61.9,55.0,49.4,99,97,83,29.81,29.67,4,0,5,0.96
2013-6-14,73.4,59.4,51.6,62.3,55.7,51.4,99,89,56,29.76,29.63,8,1,8,1.43
2013-6-15,81.3,65.1,50.9,56.2,50.5,37.4,99,66,22,29.94,29.76,9,1,9,0.00
2013-6-16,75.9,64.2,50.5,63.3,56.9,49.4,98,79,44,29.93,29.70,7,1,7,0.00
2013-6-17,88.0,68.2,57.2,67.8,61.6,56.9,99,83,36,29.90,29.76,9,1,14,0.54
2013-6-18,73.0,62.3,57.9,68.5,61.2,57.7,99,97,76,29.94,29.87,8,0,8,0.34
2013-6-19,77.9,63.0,54.5,60.9,56.1,48.7,99,81,37,30.14,29.90,8,1,8,0.14
2013-6-20,80.6,64.5,48.7,60.6,54.2,48.5,99,73,38,30.26,30.14,5,1,5,0.01
2013-6-21,85.1,69.5,56.7,68.8,60.8,55.1,98,76,43,30.24,30.17,5,1,7,0.00
2013-6-22,87.4,72.5,60.1,67.7,62.1,58.2,97,73,39,30.21,30.08,6,1,9,0.00
2013-6-23,91.6,76.1,62.6,75.3,66.9,59.0,93,74,55,30.15,29.96,11,2,11,0.01
2013-6-24,95.9,80.3,69.3,76.1,71.2,64.0,99,77,43,30.00,29.85,5,1,8,0.04
2013-6-25,94.6,79.1,67.8,73.9,69.9,67.0,99,76,41,29.91,29.70,7,1,8,0.00
2013-6-26,85.5,75.1,68.5,74.8,70.8,68.3,99,88,63,29.83,29.70,7,1,8,0.14
2013-6-27,73.2,66.7,62.8,69.8,66.1,62.5,99,98,87,29.86,29.74,3,0,4,0.14
2013-6-28,84.0,70.8,60.3,76.2,68.5,60.0,99,93,70,29.75,29.47,8,2,8,0.38
2013-6-29,87.3,75.5,70.2,73.3,70.4,67.9,99,85,56,29.70,29.49,8,2,13,0.00
2013-6-30,87.8,76.1,68.0,75.8,71.6,67.7,99,87,62,29.91,29.70,5,1,10,0.00
2013-7-1,84.0,74.9,70.9,78.5,73.9,70.6,99,97,77,30.06,29.91,5,1,6,0.08
2013-7-2,85.8,74.7,62.6,76.6,71.9,62.3,99,91,69,30.19,30.04,5,1,10,0.00
2013-7-3,90.3,75.3,61.5,77.0,70.5,61.3,99,86,57,30.19,30.11,7,1,8,0.00
2013-7-4,94.8,81.4,71.1,78.2,74.5,70.8,99,81,52,30.19,30.06,6,1,8,0.00
2013-7-5,95.5,83.6,72.9,77.8,75.1,72.6,99,78,50,30.14,30.01,7,1,7,0.00
2013-7-6,91.8,82.9,71.6,77.4,73.4,66.2,99,74,54,30.06,29.95,7,2,11,0.00
2013-7-7,95.0,77.4,67.5,79.5,72.4,66.0,99,86,54,30.01,29.88,5,0,5,0.01
2013-7-8,88.3,76.6,68.7,78.2,73.1,66.5,99,89,67,30.05,29.89,4,1,6,0.00
2013-7-9,73.4,68.5,64.6,70.3,67.3,64.3,99,96,89,30.10,30.03,3,1,4,0.00
2013-7-10,85.8,74.2,66.7,77.5,71.9,66.4,99,93,73,30.06,29.77,8,1,11,0.09
2013-7-11,82.2,75.0,70.0,78.1,73.7,69.7,99,96,78,29.91,29.75,4,0,7,0.09
2013-7-12,79.0,69.9,64.6,69.7,64.0,59.7,99,82,57,30.19,29.91,7,1,7,0.00
2013-7-13,78.8,70.6,64.4,73.1,67.7,60.5,99,91,78,30.30,30.19,4,1,4,0.00
2013-7-14,93.2,78.3,68.2,77.3,72.9,67.9,99,86,48,30.29,30.17,6,1,6,0.00
2013-7-15,94.8,78.9,69.3,78.7,73.9,69.0,99,86,48,30.19,30.07,7,1,7,0.00
2013-7-16,95.5,79.2,66.9,76.1,70.5,66.6,99,78,42,30.15,30.08,6,1,8,0.00
2013-7-17,97.3,81.5,69.1,76.3,72.2,66.1,99,77,37,30.16,29.97,4,1,7,0.00
2013-7-18,94.3,81.9,73.8,77.7,73.9,71.3,99,79,50,29.99,29.91,6,1,8,0.00
2013-7-19,99.3,84.4,72.0,79.3,74.9,70.1,99,76,41,29.92,29.68,8,2,11,0.00
2013-7-20,95.5,83.2,72.3,80.0,75.8,67.1,99,80,48,29.79,29.62,8,1,9,0.00
2013-7-21,85.8,73.8,66.6,69.6,66.7,63.5,99,80,51,29.97,29.79,4,1,6,0.00
2013-7-22,86.0,72.1,63.7,73.2,68.0,63.4,99,88,60,30.01,29.86,6,1,6,0.00
2013-7-23,82.0,72.5,69.4,79.9,72.1,68.6,99,98,89,29.87,29.52,6,0,15,1.84
2013-7-24,88.0,75.0,65.5,78.8,69.2,54.8,99,84,53,29.94,29.56,5,1,11,0.00
2013-7-25,65.1,59.8,57.9,58.9,55.3,49.4,99,86,68,30.10,29.94,8,2,11,1.57
2013-7-26,71.4,64.3,58.8,71.2,63.9,58.6,99,98,94,30.06,29.93,12,2,12,0.40
2013-7-27,86.9,69.9,57.0,70.7,64.9,56.8,99,86,47,30.06,29.97,5,1,7,0.00
2013-7-28,84.9,71.8,63.9,75.4,68.9,63.6,99,91,66,30.01,29.93,6,1,6,0.00
2013-7-29,86.5,72.5,66.7,74.6,69.3,66.5,99,91,62,30.02,29.94,5,1,11,0.21
2013-7-30,84.9,70.1,59.7,67.1,62.6,55.3,99,80,38,30.09,30.01,5,1,9,0.00
2013-7-31,85.5,69.6,58.5,66.6,61.5,54.0,99,79,38,30.14,30.02,5,1,5,0.00
2013-8-1,82.9,68.2,60.8,69.7,64.5,60.5,99,89,55,30.04,29.87,6,1,8,0.02
2013-8-2,85.3,71.1,63.9,71.3,65.3,59.5,99,84,44,29.87,29.77,5,1,11,0.66
2013-8-3,79.7,69.7,63.1,67.4,64.7,62.3,99,85,60,29.85,29.76,4,1,8,0.01
2013-8-4,83.3,66.7,57.0,62.7,59.2,54.9,99,80,40,29.89,29.75,6,1,8,0.00
2013-8-5,78.4,62.5,51.6,57.3,50.3,40.8,99,70,28,30.05,29.88,11,2,11,0.00
2013-8-6,80.8,62.4,48.6,60.4,54.2,48.3,99,77,37,30.14,30.05,4,1,4,0.00
2013-8-7,82.4,66.7,53.8,65.3,56.5,48.2,99,74,34,30.19,30.10,5,1,8,0.00
2013-8-8,81.3,71.4,64.0,74.2,68.3,58.1,99,90,75,30.12,29.98,7,1,7,0.15
2013-8-9,75.2,72.5,70.9,75.0,72.2,70.6,99,99,98,30.01,29.73,5,1,10,1.46
2013-8-10,85.8,72.4,59.9,71.0,64.1,56.4,99,78,41,30.00,29.77,7,1,8,0.01
2013-8-11,82.6,65.4,52.3,63.8,57.4,52.1,99,79,39,30.09,29.99,8,1,8,0.00
2013-8-12,85.3,68.9,58.1,66.1,60.7,54.2,99,79,40,30.03,29.90,5,1,7,0.00
2013-8-13,75.2,67.3,62.8,70.4,66.0,62.5,99,96,76,29.92,29.68,3,0,5,0.02
2013-8-14,75.6,65.1,57.0,63.6,56.6,52.6,99,76,47,29.96,29.65,12,2,14,0.00
2013-8-15,80.4,62.2,50.5,59.7,53.9,49.7,99,78,36,30.11,29.96,6,1,7,0.00
2013-8-16,81.7,64.0,51.6,61.9,56.5,51.4,99,80,36,30.20,30.11,6,1,7,0.00
2013-8-17,81.3,65.9,53.6,65.2,59.6,53.3,99,82,50,30.28,30.20,4,1,5,0.00
2013-8-18,78.8,66.3,57.2,68.6,62.9,56.9,99,90,62,30.27,30.08,3,0,4,0.00
2013-8-19,83.3,69.1,57.4,67.6,62.5,57.1,99,82,51,30.08,29.95,4,1,5,0.00
2013-8-20,89.2,72.0,60.4,68.4,64.0,56.8,99,80,34,30.09,29.97,5,0,5,0.00
2013-8-21,91.6,72.8,59.5,69.9,65.0,59.3,99,80,40,30.15,30.01,4,1,4,0.00
2013-8-22,86.5,74.1,62.8,74.7,69.2,62.5,99,86,58,30.03,29.80,5,1,9,0.00
2013-8-23,81.1,71.3,60.4,70.6,62.0,53.9,99,75,41,30.13,29.81,8,2,10,0.00
2013-8-24,80.4,63.4,51.1,56.1,50.7,42.7,99,69,27,30.31,30.12,6,1,8,0.00
2013-8-25,65.7,65.7,65.7,56.4,56.4,56.4,72,72,72,30.19,30.19,1,0,2,0.00
2013-8-26,74.1,71.7,70.3,69.4,68.3,67.3,90,89,85,29.89,29.85,2,0,2,0.00
2013-8-27,86.4,73.1,64.9,74.8,69.0,64.7,99,88,57,29.88,29.81,5,0,5,0.06
2013-8-28,86.5,70.3,60.3,72.2,65.6,60.0,99,87,55,29.96,29.83,4,1,5,0.00
2013-8-29,66.2,64.3,59.7,65.8,63.2,59.2,99,96,91,30.07,29.94,7,1,7,0.00
2013-8-30,86.0,70.2,59.7,69.6,65.1,59.5,99,86,55,30.03,29.81,6,1,6,0.00
2013-8-31,81.0,73.8,67.5,76.0,72.0,67.2,99,94,81,29.82,29.76,4,1,4,0.00
2013-9-1,79.0,72.1,68.5,78.6,71.9,68.3,99,99,95,29.87,29.77,4,0,4,1.31
2013-9-2,80.8,73.4,70.9,77.8,72.9,70.6,99,98,86,29.85,29.69,8,0,8,0.21
2013-9-3,81.1,72.4,61.3,74.4,69.8,60.8,99,92,73,29.80,29.67,5,1,7,0.00
2013-9-4,83.7,66.1,55.4,65.6,58.5,54.4,99,80,38,29.92,29.79,8,1,8,0.00
2013-9-5,71.6,61.5,47.7,63.6,55.1,43.8,99,82,39,30.14,29.85,8,1,9,0.05
2013-9-6,73.0,54.9,41.5,50.8,44.7,38.2,99,74,31,30.25,30.09,5,1,7,0.00
2013-9-7,83.1,61.9,46.8,59.4,52.2,46.5,99,75,32,30.10,29.85,6,1,7,0.01
2013-9-8,74.3,63.2,47.8,63.5,53.8,40.4,99,74,36,30.09,29.74,13,2,15,0.01
2013-9-9,72.3,55.2,39.9,51.4,46.1,39.7,99,75,39,30.24,30.09,5,1,8,0.00
2013-9-10,76.1,65.1,52.7,73.4,63.6,50.9,99,95,87,30.15,30.02,6,1,8,0.11
2013-9-11,97.3,80.0,68.0,80.4,72.6,67.6,99,81,44,30.06,29.92,6,1,9,0.00
2013-9-12,89.6,76.8,68.2,76.8,71.4,67.9,99,85,53,29.94,29.65,9,2,11,1.07
2013-9-13,80.1,68.0,59.2,71.5,65.7,56.2,99,93,69,29.75,29.54,10,1,11,0.18
2013-9-14,67.3,59.6,50.5,57.6,54.3,50.3,99,83,67,30.05,29.75,6,2,10,0.00
2013-9-15,73.9,56.8,45.0,58.4,50.2,44.7,99,82,42,30.16,30.05,4,1,6,0.00
2013-9-16,69.4,56.6,46.8,58.9,52.1,39.1,99,86,61,30.25,30.01,7,1,8,0.01
2013-9-17,65.7,49.4,37.0,47.7,41.0,36.5,99,76,41,30.42,30.26,7,1,8,0.00
2013-9-18,77.4,53.7,39.2,56.3,45.4,38.9,99,79,27,30.33,30.14,5,1,5,0.00
2013-9-19,82.6,59.9,44.8,60.0,52.8,44.5,99,81,38,30.14,30.03,3,0,4,0.00
2013-9-20,82.4,61.4,47.3,62.5,54.7,47.0,99,83,35,30.09,29.98,5,1,5,0.00
2013-9-21,76.5,64.4,51.4,67.8,60.7,51.2,99,89,63,30.03,29.71,11,2,11,0.00
2013-9-22,73.0,64.2,50.9,69.1,58.5,47.0,99,83,50,29.83,29.58,8,2,11,0.12
2013-9-23,66.0,51.8,42.4,47.8,43.6,40.8,98,75,46,30.01,29.83,12,2,14,0.00
2013-9-24,70.9,52.1,39.4,49.7,43.8,39.1,99,77,38,29.99,29.81,8,1,9,0.00
2013-9-25,69.1,53.2,41.2,55.8,48.1,40.9,99,85,56,29.98,29.87,8,1,8,0.00
2013-9-26,70.2,57.0,50.9,53.4,50.8,47.5,99,82,47,30.13,29.98,6,1,6,0.00
2013-9-27,64.9,56.8,48.0,57.1,53.6,47.8,99,90,71,30.26,30.12,5,1,8,0.00
2013-9-28,76.1,55.8,43.5,59.9,51.1,43.3,99,86,48,30.33,30.25,5,1,9,0.00
2013-9-29,70.5,52.8,43.9,57.1,48.3,43.6,99,87,43,30.26,30.11,6,1,6,0.00
2013-9-30,72.0,54.4,45.9,55.1,50.3,45.6,99,88,47,30.13,29.95,4,1,4,0.00
2013-10-1,79.7,56.9,42.3,58.9,51.1,42.0,99,85,38,29.96,29.84,8,1,11,0.00
2013-10-2,82.6,64.0,51.1,63.6,57.6,50.8,99,83,49,29.95,29.82,8,1,9,0.00
2013-10-3,80.2,61.1,49.5,61.3,52.9,46.2,99,79,32,30.08,29.95,6,1,6,0.00
2013-10-4,66.6,57.1,48.9,61.7,55.9,48.7,99,96,80,30.09,30.03,3,0,3,0.01
2013-10-5,70.7,61.7,56.8,61.6,58.8,56.6,99,91,72,30.12,30.05,5,0,5,0.00
2013-10-6,60.1,56.5,54.1,59.3,56.2,53.9,99,99,96,30.22,30.10,4,0,4,0.01
2013-10-7,77.2,65.3,56.7,72.8,63.2,55.3,99,93,77,30.12,29.80,11,2,16,0.01
2013-10-8,68.9,55.3,42.8,55.7,46.9,40.9,99,76,39,30.37,29.89,10,2,10,0.00
2013-10-9,64.9,49.2,39.4,49.0,43.9,39.1,99,84,49,30.47,30.36,4,1,8,0.00
2013-10-10,63.0,50.7,39.9,54.9,48.1,39.7,99,92,70,30.36,30.17,4,0,4,0.00
2013-10-11,74.3,55.7,46.2,56.8,49.1,40.1,99,81,35,30.17,30.09,6,1,6,0.00
2013-10-12,59.7,52.8,45.1,58.9,51.7,44.9,99,96,87,30.39,30.15,4,1,5,0.00
2013-10-13,62.4,50.2,38.1,55.1,47.0,37.9,99,89,61,30.45,30.37,4,1,4,0.00
2013-10-14,67.5,47.5,32.7,50.6,41.5,32.5,99,83,39,30.41,30.24,4,0,7,0.00
2013-10-15,67.8,55.5,46.4,57.6,51.5,46.1,99,88,64,30.26,30.17,4,1,4,0.00
2013-10-16,61.7,54.3,47.3,58.0,52.6,47.0,99,94,76,30.17,29.91,5,0,5,0.00
2013-10-17,77.5,60.4,49.8,64.3,56.7,49.6,99,89,52,29.91,29.71,6,1,9,0.00
2013-10-18,68.5,59.2,43.9,61.1,51.5,42.7,99,78,44,29.91,29.60,13,2,15,0.00
2013-10-19,68.7,52.5,38.3,51.0,43.4,38.0,99,75,35,29.97,29.74,7,1,7,0.00
2013-10-20,65.1,52.0,38.3,51.4,40.6,31.5,99,69,30,30.02,29.68,11,2,15,0.02
2013-10-21,70.7,49.9,34.9,44.8,39.8,34.0,99,73,32,30.12,29.99,8,1,9,0.00
2013-10-22,66.0,51.9,40.6,54.1,45.7,39.2,99,81,54,29.99,29.70,7,1,12,0.00
2013-10-23,51.1,43.1,33.8,41.8,36.4,32.8,99,79,50,29.80,29.58,3,0,4,0.00
2013-10-24,55.8,43.3,33.1,37.2,30.6,22.6,97,65,30,29.88,29.64,13,2,14,0.00
2013-10-25,50.7,38.2,28.0,37.3,28.4,25.0,99,71,40,30.15,29.88,10,2,13,0.00
2013-10-26,58.5,41.2,27.1,38.6,29.3,22.8,99,68,25,30.16,29.87,10,2,15,0.00
2013-10-27,55.4,46.5,35.2,42.0,35.0,28.4,98,67,39,30.06,29.80,10,2,14,0.01
2013-10-28,59.7,42.4,29.8,37.8,31.2,25.6,99,68,39,30.35,30.06,10,2,17,0.00
2013-10-29,52.5,34.6,25.9,29.7,23.8,16.2,89,68,24,30.45,30.35,6,1,8,0.00
2013-10-30,53.6,38.0,27.7,44.3,35.1,25.1,99,90,63,30.37,30.19,5,0,8,0.00
2013-10-31,61.2,46.6,29.7,60.4,46.0,29.4,99,98,89,30.24,29.78,12,1,12,0.00
2013-11-1,70.3,64.4,59.9,64.5,60.4,54.2,99,88,65,29.78,29.45,12,5,14,0.00
2013-11-2,69.3,54.3,43.9,54.6,46.5,40.7,99,79,36,29.72,29.58,5,1,5,0.00
2013-11-3,48.6,40.5,29.1,48.3,30.0,15.8,99,68,36,30.42,29.71,7,2,7,0.00
2013-11-4,45.0,30.7,23.0,22.0,18.0,11.9,88,62,28,30.70,30.42,5,1,5,0.00
2013-11-5,53.6,35.4,21.7,33.9,27.3,19.8,97,75,39,30.72,30.51,6,0,6,0.00
2013-11-6,63.5,51.3,36.1,50.6,43.0,32.6,93,75,46,30.51,30.03,9,2,9,0.00
2013-11-7,66.0,53.1,35.4,59.4,50.7,33.3,99,92,71,30.03,29.67,11,2,13,0.00
2013-11-8,48.0,37.4,28.2,36.1,28.4,21.7,95,71,50,30.09,29.81,13,2,15,0.00
2013-11-9,45.0,36.7,27.5,31.1,25.4,21.4,83,65,39,30.21,30.02,9,1,11,0.00
2013-11-10,55.0,43.7,36.1,47.6,37.3,29.7,99,79,57,30.03,29.73,11,1,17,0.00
2013-11-11,55.2,44.3,37.6,33.7,28.9,24.2,72,55,32,30.10,29.85,11,2,13,0.00
2013-11-12,48.6,34.7,23.7,40.7,26.7,16.1,99,73,54,30.19,29.88,11,2,15,0.00
2013-11-13,39.0,27.2,21.4,17.9,15.5,10.6,82,63,35,30.29,30.16,9,2,12,0.00
2013-11-14,52.7,37.3,26.6,25.6,21.5,16.8,71,55,29,30.15,30.03,10,2,11,0.00
2013-11-15,63.3,44.0,28.4,33.0,21.7,4.8,77,48,10,30.19,30.10,7,1,10,0.00
2013-11-16,63.9,43.8,32.9,34.7,30.0,19.3,86,63,18,30.32,30.18,4,0,5,0.00
2013-11-17,52.9,42.3,30.0,46.9,38.4,28.1,99,87,66,30.31,29.83,3,0,4,0.00
2013-11-18,67.6,56.8,44.6,61.6,47.5,32.2,99,74,41,29.83,29.52,10,3,16,0.00
2013-11-19,48.0,39.2,29.8,32.0,22.5,16.5,63,52,35,30.27,29.64,14,4,16,0.00
2013-11-20,44.2,30.5,20.5,17.3,15.0,10.1,77,54,25,30.63,30.27,12,2,12,0.00
2013-11-21,50.2,32.0,17.6,28.1,20.8,14.4,92,66,30,30.64,30.37,7,0,8,0.00
2013-11-22,45.7,42.4,36.1,45.4,40.8,27.7,99,94,73,30.37,29.81,3,0,4,0.00
2013-11-23,45.1,39.1,28.6,44.7,27.4,15.9,99,65,32,29.91,29.77,16,4,21,0.00
2013-11-24,28.4,23.2,18.9,19.2,3.8,-7.8,77,45,23,30.19,29.78,18,7,30,0.00
2013-11-25,34.7,23.8,14.9,16.1,2.3,-12.7,58,41,15,30.36,30.19,11,2,14,0.00
2013-11-26,39.4,34.3,29.1,34.6,22.5,15.8,99,64,45,30.33,30.03,6,1,8,0.00
2013-11-27,61.9,49.9,34.7,61.6,49.6,34.3,99,99,93,30.03,29.20,15,4,18,0.00
2013-11-28,36.3,29.8,21.6,34.0,17.4,5.9,92,61,36,30.43,29.46,14,2,21,0.00
2013-11-29,35.1,24.9,17.2,18.7,12.8,3.3,82,61,31,30.74,30.43,8,1,12,0.00
2013-11-30,35.2,22.6,11.7,23.6,14.7,7.5,85,72,49,30.79,30.42,5,0,6,0.00
2013-12-1,34.7,32.3,29.1,34.5,30.7,23.5,99,94,78,30.42,30.01,4,0,4,0.00
2013-12-2,38.1,35.9,34.5,37.9,35.7,34.3,99,99,99,30.01,29.91,3,0,5,0.00
2013-12-3,49.8,36.3,27.7,41.6,34.4,27.5,99,94,61,29.95,29.84,5,0,8,0.00
2013-12-4,42.4,32.2,25.7,35.2,28.8,25.5,99,88,59,30.19,29.94,6,0,6,0.00
2013-12-5,43.5,36.9,27.5,43.3,36.6,27.3,99,99,98,30.21,29.91,4,0,4,0.00
2013-12-6,54.7,47.2,32.7,54.4,46.1,32.5,99,96,83,30.14,29.85,10,0,11,0.00
2013-12-7,39.4,31.9,23.7,36.6,29.0,23.0,99,90,63,30.45,30.07,8,1,12,0.00
2013-12-8,29.8,26.1,19.0,23.4,19.7,16.7,98,77,58,30.59,30.45,0,0,0,0.00
2013-12-9,33.8,30.0,24.6,33.6,28.7,18.5,99,95,69,30.50,29.88,0,0,1,0.00
2013-12-10,32.7,30.0,23.2,32.5,28.7,16.8,99,95,71,29.99,29.78,1,0,4,0.00
2013-12-11,31.5,24.1,18.1,19.7,18.0,16.0,91,78,56,30.20,29.99,0,0,0,0.00
2013-12-12,26.4,18.8,12.2,19.6,8.3,1.3,94,66,34,30.26,30.05,0,0,0,0.00
2013-12-13,28.8,19.9,11.7,17.1,11.7,3.6,84,71,53,30.39,29.98,9,1,12,0.00
2013-12-14,19.2,13.2,8.6,18.5,4.8,-3.4,97,70,50,30.60,30.14,6,1,8,0.00
2013-12-15,32.7,25.6,18.3,32.5,22.6,12.7,99,88,77,30.14,29.42,6,0,8,0.00
2013-12-16,28.6,21.3,13.3,17.1,4.6,-7.8,82,51,20,30.20,29.73,0,0,0,0.00
2013-12-17,16.7,10.1,-1.1,7.4,-3.2,-14.0,66,54,33,30.29,29.94,0,0,0,0.00
2013-12-18,35.6,22.4,13.6,18.0,9.9,3.8,69,59,35,30.08,29.86,0,0,1,0.00
2013-12-19,44.4,30.8,18.0,19.4,12.8,1.6,66,49,17,30.11,29.95,8,1,10,0.00
2013-12-20,54.7,39.6,28.6,25.1,20.3,14.6,68,48,22,30.11,29.90,6,1,8,0.00
2013-12-21,57.2,47.1,39.4,39.3,31.6,21.4,74,55,42,29.96,29.85,6,0,6,0.00
2013-12-22,51.6,39.8,32.9,46.9,35.2,28.9,85,83,74,30.03,29.79,11,0,11,0.00
2013-12-23,34.7,32.7,31.3,32.1,29.2,27.6,90,87,85,30.09,29.95,4,0,4,0.00
2013-12-24,36.9,31.2,25.3,32.7,9.6,-7.0,91,44,15,30.20,30.04,8,1,12,0.00
2013-12-25,25.3,17.7,13.1,-2.2,-14.6,-29.8,43,24,10,30.54,30.19,14,2,16,0.00
2013-12-26,30.0,22.4,13.1,16.7,7.6,-5.6,66,53,42,30.50,30.08,4,0,4,0.00
2013-12-27,33.6,24.7,16.5,13.2,6.6,-1.2,66,48,23,30.27,30.19,9,1,9,0.00
2013-12-28,47.5,31.8,21.4,14.9,8.7,-7.0,57,41,10,30.21,29.98,10,1,10,0.00
2013-12-29,40.6,33.5,27.1,29.9,21.6,14.0,80,62,39,30.03,29.41,11,1,11,0.00
2013-12-30,41.4,31.5,17.6,33.9,9.7,-16.1,84,47,10,30.16,29.52,14,2,15,0.00
2013-12-31,25.5,17.5,12.0,2.6,-12.4,-26.2,46,27,10,30.18,30.01,7,1,7,0.00
2014-1-1,28.8,19.2,11.3,-1.4,-11.5,-24.4,44,27,10,30.38,30.18,9,1,13,0.00
2014-1-2,19.0,10.4,-0.9,2.8,-4.6,-16.2,54,50,40,30.35,29.84,10,2,14,0.00